sensor_id;sensor_type;location;lat;lon;timestamp;P1;durP1;ratioP1;P2;durP2;ratioP2
12869;SDS011;6503;48.572;13.460;2022-12-19T00:01:08;38.08;;;16.13;;
12869;SDS011;6503;48.572;13.460;2022-12-19T00:03:40;36.78;;;17.02;;
12869;SDS011;6503;48.572;13.460;2022-12-19T00:06:09;35.95;;;16.15;;
12869;SDS011;6503;48.572;13.460;2022-12-19T00:08:39;31.90;;;15.45;;
12869;SDS011;6503;48.572;13.460;2022-12-19T00:11:07;34.80;;;15.43;;
12869;SDS011;6503;48.572;13.460;2022-12-19T00:13:36;33.40;;;16.15;;
12869;SDS011;6503;48.572;13.460;2022-12-19T00:19:53;40.08;;;18.08;;
12869;SDS011;6503;48.572;13.460;2022-12-19T00:26:17;35.10;;;16.83;;
12869;SDS011;6503;48.572;13.460;2022-12-19T00:33:08;39.55;;;16.77;;
12869;SDS011;6503;48.572;13.460;2022-12-19T00:36:16;34.33;;;15.90;;
12869;SDS011;6503;48.572;13.460;2022-12-19T00:39:07;31.23;;;15.85;;
12869;SDS011;6503;48.572;13.460;2022-12-19T01:02:54;33.40;;;15.43;;
12869;SDS011;6503;48.572;13.460;2022-12-19T01:12:38;31.02;;;15.32;;
12869;SDS011;6503;48.572;13.460;2022-12-19T01:15:43;34.60;;;16.60;;
12869;SDS011;6503;48.572;13.460;2022-12-19T01:49:13;35.80;;;16.45;;
12869;SDS011;6503;48.572;13.460;2022-12-19T01:59:10;30.88;;;15.55;;
12869;SDS011;6503;48.572;13.460;2022-12-19T02:02:31;33.22;;;16.10;;
12869;SDS011;6503;48.572;13.460;2022-12-19T02:12:20;38.35;;;16.63;;
12869;SDS011;6503;48.572;13.460;2022-12-19T02:18:56;37.10;;;18.30;;
12869;SDS011;6503;48.572;13.460;2022-12-19T02:22:03;32.00;;;16.63;;
12869;SDS011;6503;48.572;13.460;2022-12-19T02:25:09;32.00;;;14.93;;
12869;SDS011;6503;48.572;13.460;2022-12-19T02:28:36;32.55;;;14.80;;
12869;SDS011;6503;48.572;13.460;2022-12-19T02:35:12;35.03;;;15.93;;
12869;SDS011;6503;48.572;13.460;2022-12-19T02:38:19;28.67;;;13.52;;
12869;SDS011;6503;48.572;13.460;2022-12-19T02:41:31;32.30;;;15.23;;
12869;SDS011;6503;48.572;13.460;2022-12-19T02:47:39;30.77;;;16.08;;
12869;SDS011;6503;48.572;13.460;2022-12-19T02:58:00;29.60;;;16.88;;
12869;SDS011;6503;48.572;13.460;2022-12-19T03:01:06;32.95;;;16.15;;
12869;SDS011;6503;48.572;13.460;2022-12-19T03:04:28;33.22;;;16.40;;
12869;SDS011;6503;48.572;13.460;2022-12-19T03:07:35;32.55;;;16.25;;
12869;SDS011;6503;48.572;13.460;2022-12-19T03:10:27;34.00;;;16.15;;
12869;SDS011;6503;48.572;13.460;2022-12-19T04:33:47;34.72;;;16.95;;
12869;SDS011;6503;48.572;13.460;2022-12-19T04:36:18;40.80;;;17.90;;
12869;SDS011;6503;48.572;13.460;2022-12-19T04:38:48;36.90;;;16.88;;
12869;SDS011;6503;48.572;13.460;2022-12-19T04:41:17;31.45;;;15.55;;
12869;SDS011;6503;48.572;13.460;2022-12-19T04:43:55;29.95;;;14.90;;
12869;SDS011;6503;48.572;13.460;2022-12-19T04:56:39;30.23;;;15.60;;
12869;SDS011;6503;48.572;13.460;2022-12-19T04:59:48;30.52;;;15.68;;
12869;SDS011;6503;48.572;13.460;2022-12-19T05:02:31;31.90;;;15.73;;
12869;SDS011;6503;48.572;13.460;2022-12-19T05:05:27;34.95;;;15.88;;
12869;SDS011;6503;48.572;13.460;2022-12-19T05:18:47;38.58;;;18.23;;
12869;SDS011;6503;48.572;13.460;2022-12-19T05:21:39;35.58;;;18.13;;
12869;SDS011;6503;48.572;13.460;2022-12-19T05:24:55;35.53;;;18.52;;
12869;SDS011;6503;48.572;13.460;2022-12-19T05:37:32;38.05;;;17.85;;
12869;SDS011;6503;48.572;13.460;2022-12-19T05:40:14;41.20;;;16.98;;
12869;SDS011;6503;48.572;13.460;2022-12-19T05:43:39;37.25;;;15.50;;
12869;SDS011;6503;48.572;13.460;2022-12-19T05:46:42;31.35;;;15.82;;
12869;SDS011;6503;48.572;13.460;2022-12-19T06:00:47;38.03;;;18.37;;
12869;SDS011;6503;48.572;13.460;2022-12-19T06:04:41;33.67;;;16.98;;
12869;SDS011;6503;48.572;13.460;2022-12-19T06:13:46;35.33;;;16.45;;
12869;SDS011;6503;48.572;13.460;2022-12-19T06:16:17;26.40;;;15.27;;
12869;SDS011;6503;48.572;13.460;2022-12-19T06:22:02;32.00;;;15.32;;
12869;SDS011;6503;48.572;13.460;2022-12-19T06:24:40;29.90;;;15.10;;
12869;SDS011;6503;48.572;13.460;2022-12-19T06:27:16;27.67;;;14.23;;
12869;SDS011;6503;48.572;13.460;2022-12-19T06:29:47;32.08;;;15.82;;
12869;SDS011;6503;48.572;13.460;2022-12-19T06:32:15;30.45;;;15.10;;
12869;SDS011;6503;48.572;13.460;2022-12-19T06:37:26;34.80;;;16.67;;
12869;SDS011;6503;48.572;13.460;2022-12-19T06:48:02;56.90;;;26.92;;
12869;SDS011;6503;48.572;13.460;2022-12-19T06:50:39;34.65;;;17.10;;
12869;SDS011;6503;48.572;13.460;2022-12-19T06:53:11;35.30;;;17.58;;
12869;SDS011;6503;48.572;13.460;2022-12-19T06:55:47;33.75;;;16.80;;
12869;SDS011;6503;48.572;13.460;2022-12-19T06:58:31;33.60;;;17.75;;
12869;SDS011;6503;48.572;13.460;2022-12-19T07:01:01;33.22;;;16.55;;
12869;SDS011;6503;48.572;13.460;2022-12-19T07:03:43;35.90;;;16.35;;
12869;SDS011;6503;48.572;13.460;2022-12-19T07:06:14;34.45;;;17.15;;
12869;SDS011;6503;48.572;13.460;2022-12-19T07:09:08;36.17;;;16.05;;
12869;SDS011;6503;48.572;13.460;2022-12-19T07:12:21;35.58;;;17.73;;
12869;SDS011;6503;48.572;13.460;2022-12-19T07:25:46;33.40;;;16.90;;
12869;SDS011;6503;48.572;13.460;2022-12-19T07:28:16;32.80;;;16.55;;
12869;SDS011;6503;48.572;13.460;2022-12-19T07:30:44;30.75;;;16.60;;
12869;SDS011;6503;48.572;13.460;2022-12-19T07:33:11;37.15;;;17.83;;
12869;SDS011;6503;48.572;13.460;2022-12-19T07:35:39;35.50;;;16.65;;
12869;SDS011;6503;48.572;13.460;2022-12-19T07:38:07;34.75;;;16.67;;
12869;SDS011;6503;48.572;13.460;2022-12-19T07:40:34;34.97;;;17.60;;
12869;SDS011;6503;48.572;13.460;2022-12-19T07:43:04;36.65;;;16.55;;
12869;SDS011;6503;48.572;13.460;2022-12-19T07:45:32;38.88;;;18.23;;
12869;SDS011;6503;48.572;13.460;2022-12-19T07:48:02;35.22;;;16.88;;
12869;SDS011;6503;48.572;13.460;2022-12-19T07:50:42;38.95;;;18.02;;
12869;SDS011;6503;48.572;13.460;2022-12-19T07:57:14;35.20;;;16.60;;
12869;SDS011;6503;48.572;13.460;2022-12-19T07:59:47;33.55;;;17.58;;
12869;SDS011;6503;48.572;13.460;2022-12-19T08:02:15;35.72;;;17.10;;
12869;SDS011;6503;48.572;13.460;2022-12-19T08:04:42;37.28;;;16.27;;
12869;SDS011;6503;48.572;13.460;2022-12-19T08:07:10;44.25;;;18.55;;
12869;SDS011;6503;48.572;13.460;2022-12-19T08:09:37;33.15;;;17.13;;
12869;SDS011;6503;48.572;13.460;2022-12-19T08:12:04;37.53;;;20.75;;
12869;SDS011;6503;48.572;13.460;2022-12-19T08:14:34;31.20;;;15.02;;
12869;SDS011;6503;48.572;13.460;2022-12-19T08:17:03;39.10;;;17.45;;
12869;SDS011;6503;48.572;13.460;2022-12-19T08:19:30;36.92;;;18.02;;
12869;SDS011;6503;48.572;13.460;2022-12-19T08:21:58;34.83;;;16.80;;
12869;SDS011;6503;48.572;13.460;2022-12-19T08:24:25;36.63;;;17.52;;
12869;SDS011;6503;48.572;13.460;2022-12-19T08:26:55;36.53;;;19.27;;
12869;SDS011;6503;48.572;13.460;2022-12-19T08:29:26;34.70;;;16.75;;
12869;SDS011;6503;48.572;13.460;2022-12-19T08:31:54;40.38;;;18.65;;
12869;SDS011;6503;48.572;13.460;2022-12-19T08:34:24;35.50;;;17.58;;
12869;SDS011;6503;48.572;13.460;2022-12-19T08:36:51;33.93;;;17.20;;
12869;SDS011;6503;48.572;13.460;2022-12-19T08:39:20;40.53;;;17.95;;
12869;SDS011;6503;48.572;13.460;2022-12-19T08:41:47;38.13;;;17.92;;
12869;SDS011;6503;48.572;13.460;2022-12-19T08:44:17;39.55;;;19.08;;
12869;SDS011;6503;48.572;13.460;2022-12-19T08:46:54;37.28;;;17.23;;
12869;SDS011;6503;48.572;13.460;2022-12-19T08:49:21;39.63;;;18.15;;
12869;SDS011;6503;48.572;13.460;2022-12-19T08:51:51;39.50;;;19.47;;
12869;SDS011;6503;48.572;13.460;2022-12-19T08:54:21;38.38;;;18.90;;
12869;SDS011;6503;48.572;13.460;2022-12-19T08:56:48;41.28;;;19.42;;
12869;SDS011;6503;48.572;13.460;2022-12-19T08:59:16;51.63;;;20.27;;
12869;SDS011;6503;48.572;13.460;2022-12-19T09:01:43;51.65;;;21.05;;
12869;SDS011;6503;48.572;13.460;2022-12-19T09:04:11;49.25;;;21.27;;
12869;SDS011;6503;48.572;13.460;2022-12-19T09:06:43;53.72;;;21.48;;
12869;SDS011;6503;48.572;13.460;2022-12-19T09:09:10;45.80;;;20.93;;
12869;SDS011;6503;48.572;13.460;2022-12-19T09:11:38;46.35;;;22.35;;
12869;SDS011;6503;48.572;13.460;2022-12-19T09:14:06;38.85;;;19.52;;
12869;SDS011;6503;48.572;13.460;2022-12-19T09:16:33;45.47;;;20.55;;
12869;SDS011;6503;48.572;13.460;2022-12-19T09:19:02;71.35;;;35.50;;
12869;SDS011;6503;48.572;13.460;2022-12-19T09:21:33;42.53;;;20.75;;
12869;SDS011;6503;48.572;13.460;2022-12-19T09:24:07;47.38;;;19.83;;
12869;SDS011;6503;48.572;13.460;2022-12-19T09:26:35;43.05;;;22.10;;
12869;SDS011;6503;48.572;13.460;2022-12-19T09:29:13;42.42;;;20.13;;
12869;SDS011;6503;48.572;13.460;2022-12-19T09:31:51;47.38;;;21.52;;
12869;SDS011;6503;48.572;13.460;2022-12-19T09:34:28;40.05;;;20.58;;
12869;SDS011;6503;48.572;13.460;2022-12-19T09:37:23;38.50;;;19.50;;
12869;SDS011;6503;48.572;13.460;2022-12-19T09:39:56;38.67;;;19.33;;
12869;SDS011;6503;48.572;13.460;2022-12-19T09:42:40;42.58;;;19.25;;
12869;SDS011;6503;48.572;13.460;2022-12-19T09:45:24;41.10;;;19.35;;
12869;SDS011;6503;48.572;13.460;2022-12-19T09:48:14;40.58;;;19.48;;
12869;SDS011;6503;48.572;13.460;2022-12-19T09:50:49;37.33;;;19.05;;
12869;SDS011;6503;48.572;13.460;2022-12-19T09:53:24;36.35;;;18.92;;
12869;SDS011;6503;48.572;13.460;2022-12-19T09:56:02;38.25;;;19.15;;
12869;SDS011;6503;48.572;13.460;2022-12-19T09:58:39;38.08;;;18.98;;
12869;SDS011;6503;48.572;13.460;2022-12-19T10:01:13;37.15;;;19.45;;
12869;SDS011;6503;48.572;13.460;2022-12-19T10:03:52;38.58;;;18.85;;
12869;SDS011;6503;48.572;13.460;2022-12-19T10:06:25;38.10;;;18.73;;
12869;SDS011;6503;48.572;13.460;2022-12-19T10:08:54;35.60;;;18.23;;
12869;SDS011;6503;48.572;13.460;2022-12-19T10:11:30;36.50;;;18.40;;
12869;SDS011;6503;48.572;13.460;2022-12-19T10:14:17;39.38;;;18.42;;
12869;SDS011;6503;48.572;13.460;2022-12-19T10:16:56;38.28;;;19.48;;
12869;SDS011;6503;48.572;13.460;2022-12-19T10:19:43;39.28;;;18.40;;
12869;SDS011;6503;48.572;13.460;2022-12-19T10:22:22;37.03;;;18.92;;
12869;SDS011;6503;48.572;13.460;2022-12-19T10:25:02;38.67;;;19.10;;
12869;SDS011;6503;48.572;13.460;2022-12-19T10:27:45;41.15;;;20.67;;
12869;SDS011;6503;48.572;13.460;2022-12-19T10:30:18;36.83;;;19.30;;
12869;SDS011;6503;48.572;13.460;2022-12-19T10:35:26;37.45;;;18.55;;
12869;SDS011;6503;48.572;13.460;2022-12-19T10:38:01;39.38;;;19.58;;
12869;SDS011;6503;48.572;13.460;2022-12-19T10:40:41;37.03;;;18.50;;
12869;SDS011;6503;48.572;13.460;2022-12-19T10:43:17;36.40;;;17.98;;
12869;SDS011;6503;48.572;13.460;2022-12-19T10:45:51;39.97;;;19.88;;
12869;SDS011;6503;48.572;13.460;2022-12-19T10:48:23;41.40;;;20.23;;
12869;SDS011;6503;48.572;13.460;2022-12-19T10:50:50;42.15;;;21.30;;
12869;SDS011;6503;48.572;13.460;2022-12-19T10:53:24;41.35;;;20.17;;
12869;SDS011;6503;48.572;13.460;2022-12-19T10:55:53;39.80;;;20.23;;
12869;SDS011;6503;48.572;13.460;2022-12-19T10:58:33;39.67;;;18.48;;
12869;SDS011;6503;48.572;13.460;2022-12-19T11:01:03;37.40;;;19.73;;
12869;SDS011;6503;48.572;13.460;2022-12-19T11:03:35;39.05;;;19.33;;
12869;SDS011;6503;48.572;13.460;2022-12-19T11:06:04;35.88;;;18.50;;
12869;SDS011;6503;48.572;13.460;2022-12-19T11:09:14;41.67;;;20.08;;
12869;SDS011;6503;48.572;13.460;2022-12-19T11:11:44;40.35;;;19.65;;
12869;SDS011;6503;48.572;13.460;2022-12-19T11:17:04;41.95;;;19.92;;
12869;SDS011;6503;48.572;13.460;2022-12-19T11:19:48;34.03;;;19.20;;
12869;SDS011;6503;48.572;13.460;2022-12-19T11:22:20;37.22;;;19.63;;
12869;SDS011;6503;48.572;13.460;2022-12-19T11:24:51;36.05;;;17.92;;
12869;SDS011;6503;48.572;13.460;2022-12-19T11:27:30;35.27;;;18.53;;
12869;SDS011;6503;48.572;13.460;2022-12-19T11:30:17;38.80;;;18.27;;
12869;SDS011;6503;48.572;13.460;2022-12-19T11:33:05;35.80;;;17.90;;
12869;SDS011;6503;48.572;13.460;2022-12-19T11:35:53;32.10;;;18.02;;
12869;SDS011;6503;48.572;13.460;2022-12-19T11:41:59;35.13;;;16.77;;
12869;SDS011;6503;48.572;13.460;2022-12-19T11:49:50;35.65;;;17.75;;
12869;SDS011;6503;48.572;13.460;2022-12-19T11:55:14;32.47;;;16.15;;
12869;SDS011;6503;48.572;13.460;2022-12-19T12:01:44;38.55;;;18.25;;
12869;SDS011;6503;48.572;13.460;2022-12-19T12:07:51;36.47;;;17.85;;
12869;SDS011;6503;48.572;13.460;2022-12-19T12:10:38;36.08;;;17.92;;
12869;SDS011;6503;48.572;13.460;2022-12-19T12:13:14;38.65;;;17.83;;
12869;SDS011;6503;48.572;13.460;2022-12-19T12:15:53;36.80;;;18.42;;
12869;SDS011;6503;48.572;13.460;2022-12-19T12:18:28;35.72;;;18.45;;
12869;SDS011;6503;48.572;13.460;2022-12-19T12:21:16;35.20;;;17.70;;
12869;SDS011;6503;48.572;13.460;2022-12-19T12:23:52;33.88;;;17.63;;
12869;SDS011;6503;48.572;13.460;2022-12-19T12:26:30;37.33;;;19.58;;
12869;SDS011;6503;48.572;13.460;2022-12-19T12:29:05;32.75;;;16.13;;
12869;SDS011;6503;48.572;13.460;2022-12-19T12:31:51;34.35;;;17.92;;
12869;SDS011;6503;48.572;13.460;2022-12-19T12:34:40;34.22;;;18.70;;
12869;SDS011;6503;48.572;13.460;2022-12-19T12:37:29;36.47;;;18.02;;
12869;SDS011;6503;48.572;13.460;2022-12-19T12:40:12;34.30;;;18.02;;
12869;SDS011;6503;48.572;13.460;2022-12-19T12:42:53;34.42;;;18.30;;
12869;SDS011;6503;48.572;13.460;2022-12-19T12:45:30;39.38;;;19.90;;
12869;SDS011;6503;48.572;13.460;2022-12-19T12:48:02;36.80;;;19.25;;
12869;SDS011;6503;48.572;13.460;2022-12-19T12:50:33;35.40;;;18.85;;
12869;SDS011;6503;48.572;13.460;2022-12-19T12:53:05;39.10;;;19.75;;
12869;SDS011;6503;48.572;13.460;2022-12-19T12:55:36;38.08;;;19.58;;
12869;SDS011;6503;48.572;13.460;2022-12-19T13:01:07;39.17;;;19.27;;
12869;SDS011;6503;48.572;13.460;2022-12-19T13:03:40;37.63;;;19.27;;
12869;SDS011;6503;48.572;13.460;2022-12-19T13:06:24;37.72;;;19.33;;
12869;SDS011;6503;48.572;13.460;2022-12-19T13:08:52;42.78;;;21.15;;
12869;SDS011;6503;48.572;13.460;2022-12-19T13:11:34;36.13;;;19.52;;
12869;SDS011;6503;48.572;13.460;2022-12-19T13:14:40;42.58;;;18.67;;
12869;SDS011;6503;48.572;13.460;2022-12-19T13:17:10;35.97;;;17.75;;
12869;SDS011;6503;48.572;13.460;2022-12-19T13:19:51;40.10;;;20.02;;
12869;SDS011;6503;48.572;13.460;2022-12-19T13:22:22;32.50;;;17.40;;
12869;SDS011;6503;48.572;13.460;2022-12-19T13:31:19;35.88;;;18.45;;
12869;SDS011;6503;48.572;13.460;2022-12-19T13:36:44;37.00;;;19.27;;
12869;SDS011;6503;48.572;13.460;2022-12-19T13:39:22;40.00;;;20.90;;
12869;SDS011;6503;48.572;13.460;2022-12-19T13:42:01;38.53;;;20.15;;
12869;SDS011;6503;48.572;13.460;2022-12-19T13:44:54;38.63;;;19.73;;
12869;SDS011;6503;48.572;13.460;2022-12-19T13:47:24;36.72;;;20.02;;
12869;SDS011;6503;48.572;13.460;2022-12-19T13:49:57;36.88;;;19.95;;
12869;SDS011;6503;48.572;13.460;2022-12-19T13:52:27;35.88;;;18.58;;
12869;SDS011;6503;48.572;13.460;2022-12-19T13:54:57;36.40;;;18.23;;
12869;SDS011;6503;48.572;13.460;2022-12-19T13:57:26;36.00;;;17.92;;
12869;SDS011;6503;48.572;13.460;2022-12-19T13:59:59;33.05;;;18.42;;
12869;SDS011;6503;48.572;13.460;2022-12-19T14:02:33;38.95;;;20.00;;
12869;SDS011;6503;48.572;13.460;2022-12-19T14:05:04;37.72;;;20.13;;
12869;SDS011;6503;48.572;13.460;2022-12-19T14:07:44;39.53;;;20.20;;
12869;SDS011;6503;48.572;13.460;2022-12-19T14:10:15;37.70;;;19.33;;
12869;SDS011;6503;48.572;13.460;2022-12-19T14:12:44;39.95;;;19.08;;
12869;SDS011;6503;48.572;13.460;2022-12-19T14:15:32;38.38;;;20.67;;
12869;SDS011;6503;48.572;13.460;2022-12-19T14:18:00;36.70;;;19.52;;
12869;SDS011;6503;48.572;13.460;2022-12-19T14:20:34;37.38;;;19.90;;
12869;SDS011;6503;48.572;13.460;2022-12-19T14:23:01;39.63;;;19.48;;
12869;SDS011;6503;48.572;13.460;2022-12-19T14:25:32;41.25;;;19.83;;
12869;SDS011;6503;48.572;13.460;2022-12-19T14:28:03;36.20;;;18.08;;
12869;SDS011;6503;48.572;13.460;2022-12-19T14:30:37;34.95;;;18.42;;
12869;SDS011;6503;48.572;13.460;2022-12-19T14:33:28;40.92;;;19.42;;
12869;SDS011;6503;48.572;13.460;2022-12-19T14:36:04;45.58;;;20.15;;
12869;SDS011;6503;48.572;13.460;2022-12-19T14:38:36;37.13;;;20.05;;
12869;SDS011;6503;48.572;13.460;2022-12-19T14:47:40;38.88;;;18.95;;
12869;SDS011;6503;48.572;13.460;2022-12-19T14:50:26;44.03;;;23.13;;
12869;SDS011;6503;48.572;13.460;2022-12-19T14:53:07;41.67;;;21.05;;
12869;SDS011;6503;48.572;13.460;2022-12-19T14:55:37;39.22;;;20.70;;
12869;SDS011;6503;48.572;13.460;2022-12-19T14:58:22;41.58;;;20.67;;
12869;SDS011;6503;48.572;13.460;2022-12-19T15:01:20;41.30;;;20.42;;
12869;SDS011;6503;48.572;13.460;2022-12-19T15:07:17;39.17;;;19.45;;
12869;SDS011;6503;48.572;13.460;2022-12-19T15:09:57;41.10;;;20.05;;
12869;SDS011;6503;48.572;13.460;2022-12-19T15:12:30;44.03;;;21.73;;
12869;SDS011;6503;48.572;13.460;2022-12-19T15:15:17;39.83;;;20.55;;
12869;SDS011;6503;48.572;13.460;2022-12-19T15:18:02;43.20;;;21.65;;
12869;SDS011;6503;48.572;13.460;2022-12-19T15:21:02;46.97;;;22.15;;
12869;SDS011;6503;48.572;13.460;2022-12-19T15:23:46;42.83;;;22.17;;
12869;SDS011;6503;48.572;13.460;2022-12-19T15:26:25;43.38;;;21.58;;
12869;SDS011;6503;48.572;13.460;2022-12-19T15:29:12;41.80;;;21.08;;
12869;SDS011;6503;48.572;13.460;2022-12-19T15:31:53;43.20;;;22.38;;
12869;SDS011;6503;48.572;13.460;2022-12-19T15:34:35;39.22;;;19.98;;
12869;SDS011;6503;48.572;13.460;2022-12-19T15:37:09;41.10;;;20.17;;
12869;SDS011;6503;48.572;13.460;2022-12-19T15:39:38;43.47;;;21.13;;
12869;SDS011;6503;48.572;13.460;2022-12-19T15:42:14;45.60;;;20.70;;
12869;SDS011;6503;48.572;13.460;2022-12-19T15:44:50;43.05;;;21.77;;
12869;SDS011;6503;48.572;13.460;2022-12-19T15:47:24;38.97;;;21.48;;
12869;SDS011;6503;48.572;13.460;2022-12-19T15:50:16;40.10;;;20.13;;
12869;SDS011;6503;48.572;13.460;2022-12-19T15:52:51;41.42;;;19.70;;
12869;SDS011;6503;48.572;13.460;2022-12-19T15:55:23;36.50;;;19.88;;
12869;SDS011;6503;48.572;13.460;2022-12-19T15:58:09;39.13;;;20.00;;
12869;SDS011;6503;48.572;13.460;2022-12-19T16:01:00;44.20;;;20.00;;
12869;SDS011;6503;48.572;13.460;2022-12-19T16:03:46;41.20;;;21.15;;
12869;SDS011;6503;48.572;13.460;2022-12-19T16:06:28;44.60;;;22.38;;
12869;SDS011;6503;48.572;13.460;2022-12-19T16:09:04;44.05;;;24.35;;
12869;SDS011;6503;48.572;13.460;2022-12-19T16:11:42;43.10;;;23.20;;
12869;SDS011;6503;48.572;13.460;2022-12-19T16:14:19;47.72;;;25.33;;
12869;SDS011;6503;48.572;13.460;2022-12-19T16:16:49;44.35;;;24.02;;
12869;SDS011;6503;48.572;13.460;2022-12-19T16:22:29;43.38;;;22.23;;
12869;SDS011;6503;48.572;13.460;2022-12-19T16:25:00;43.70;;;22.33;;
12869;SDS011;6503;48.572;13.460;2022-12-19T16:27:28;50.80;;;25.98;;
12869;SDS011;6503;48.572;13.460;2022-12-19T16:29:57;48.10;;;25.42;;
12869;SDS011;6503;48.572;13.460;2022-12-19T16:32:31;49.30;;;26.92;;
12869;SDS011;6503;48.572;13.460;2022-12-19T16:34:58;50.47;;;25.33;;
12869;SDS011;6503;48.572;13.460;2022-12-19T16:37:26;49.10;;;24.08;;
12869;SDS011;6503;48.572;13.460;2022-12-19T16:39:53;48.85;;;25.17;;
12869;SDS011;6503;48.572;13.460;2022-12-19T16:42:21;47.20;;;23.08;;
12869;SDS011;6503;48.572;13.460;2022-12-19T16:44:49;44.05;;;22.70;;
12869;SDS011;6503;48.572;13.460;2022-12-19T16:47:17;44.88;;;22.25;;
12869;SDS011;6503;48.572;13.460;2022-12-19T16:49:45;44.67;;;21.77;;
12869;SDS011;6503;48.572;13.460;2022-12-19T16:52:13;43.58;;;22.50;;
12869;SDS011;6503;48.572;13.460;2022-12-19T16:54:40;45.60;;;23.10;;
12869;SDS011;6503;48.572;13.460;2022-12-19T16:57:13;44.83;;;23.88;;
12869;SDS011;6503;48.572;13.460;2022-12-19T16:59:52;47.03;;;23.20;;
12869;SDS011;6503;48.572;13.460;2022-12-19T17:05:13;43.58;;;22.73;;
12869;SDS011;6503;48.572;13.460;2022-12-19T17:07:43;49.17;;;23.35;;
12869;SDS011;6503;48.572;13.460;2022-12-19T17:10:11;45.40;;;24.00;;
12869;SDS011;6503;48.572;13.460;2022-12-19T17:12:38;48.53;;;25.38;;
12869;SDS011;6503;48.572;13.460;2022-12-19T17:15:18;46.05;;;23.67;;
12869;SDS011;6503;48.572;13.460;2022-12-19T17:17:48;47.53;;;23.08;;
12869;SDS011;6503;48.572;13.460;2022-12-19T17:20:16;47.67;;;24.33;;
12869;SDS011;6503;48.572;13.460;2022-12-19T17:22:44;45.25;;;24.33;;
12869;SDS011;6503;48.572;13.460;2022-12-19T17:25:17;49.13;;;24.00;;
12869;SDS011;6503;48.572;13.460;2022-12-19T17:27:46;48.05;;;26.35;;
12869;SDS011;6503;48.572;13.460;2022-12-19T17:30:14;48.95;;;24.67;;
12869;SDS011;6503;48.572;13.460;2022-12-19T17:32:43;50.55;;;26.25;;
12869;SDS011;6503;48.572;13.460;2022-12-19T17:35:13;52.80;;;27.65;;
12869;SDS011;6503;48.572;13.460;2022-12-19T17:37:42;51.20;;;27.13;;
12869;SDS011;6503;48.572;13.460;2022-12-19T17:40:16;50.25;;;26.77;;
12869;SDS011;6503;48.572;13.460;2022-12-19T17:42:45;52.47;;;27.33;;
12869;SDS011;6503;48.572;13.460;2022-12-19T17:45:12;52.85;;;26.02;;
12869;SDS011;6503;48.572;13.460;2022-12-19T17:47:40;56.10;;;28.83;;
12869;SDS011;6503;48.572;13.460;2022-12-19T17:50:16;54.78;;;27.15;;
12869;SDS011;6503;48.572;13.460;2022-12-19T17:52:47;50.72;;;26.70;;
12869;SDS011;6503;48.572;13.460;2022-12-19T17:55:16;49.83;;;26.30;;
12869;SDS011;6503;48.572;13.460;2022-12-19T17:57:45;52.63;;;24.48;;
12869;SDS011;6503;48.572;13.460;2022-12-19T18:00:13;49.58;;;26.48;;
12869;SDS011;6503;48.572;13.460;2022-12-19T18:02:42;52.28;;;27.42;;
12869;SDS011;6503;48.572;13.460;2022-12-19T18:05:14;51.75;;;26.15;;
12869;SDS011;6503;48.572;13.460;2022-12-19T18:07:46;56.30;;;27.85;;
12869;SDS011;6503;48.572;13.460;2022-12-19T18:10:14;53.92;;;29.02;;
12869;SDS011;6503;48.572;13.460;2022-12-19T18:12:43;56.45;;;29.65;;
12869;SDS011;6503;48.572;13.460;2022-12-19T18:15:10;60.70;;;31.10;;
12869;SDS011;6503;48.572;13.460;2022-12-19T18:17:38;61.65;;;31.52;;
12869;SDS011;6503;48.572;13.460;2022-12-19T18:20:19;57.88;;;29.60;;
12869;SDS011;6503;48.572;13.460;2022-12-19T18:22:52;52.38;;;26.30;;
12869;SDS011;6503;48.572;13.460;2022-12-19T18:25:20;49.40;;;24.67;;
12869;SDS011;6503;48.572;13.460;2022-12-19T18:27:50;53.40;;;24.97;;
12869;SDS011;6503;48.572;13.460;2022-12-19T18:30:18;47.53;;;25.10;;
12869;SDS011;6503;48.572;13.460;2022-12-19T18:32:47;50.95;;;23.98;;
12869;SDS011;6503;48.572;13.460;2022-12-19T18:37:47;44.88;;;22.73;;
12869;SDS011;6503;48.572;13.460;2022-12-19T18:40:17;41.13;;;21.30;;
12869;SDS011;6503;48.572;13.460;2022-12-19T18:42:46;47.03;;;22.10;;
12869;SDS011;6503;48.572;13.460;2022-12-19T18:45:14;42.35;;;21.85;;
12869;SDS011;6503;48.572;13.460;2022-12-19T18:47:44;48.38;;;24.70;;
12869;SDS011;6503;48.572;13.460;2022-12-19T18:50:29;46.90;;;24.17;;
12869;SDS011;6503;48.572;13.460;2022-12-19T18:52:57;51.10;;;26.13;;
12869;SDS011;6503;48.572;13.460;2022-12-19T18:55:25;52.33;;;30.17;;
12869;SDS011;6503;48.572;13.460;2022-12-19T18:57:54;55.95;;;27.25;;
12869;SDS011;6503;48.572;13.460;2022-12-19T19:00:22;44.83;;;23.65;;
12869;SDS011;6503;48.572;13.460;2022-12-19T19:02:53;47.78;;;24.95;;
12869;SDS011;6503;48.572;13.460;2022-12-19T19:05:25;45.05;;;23.20;;
12869;SDS011;6503;48.572;13.460;2022-12-19T19:07:58;44.20;;;23.23;;
12869;SDS011;6503;48.572;13.460;2022-12-19T19:10:36;43.35;;;23.30;;
12869;SDS011;6503;48.572;13.460;2022-12-19T19:13:04;41.40;;;23.30;;
12869;SDS011;6503;48.572;13.460;2022-12-19T19:15:31;49.63;;;24.52;;
12869;SDS011;6503;48.572;13.460;2022-12-19T19:18:00;51.25;;;25.08;;
12869;SDS011;6503;48.572;13.460;2022-12-19T19:20:30;49.15;;;24.65;;
12869;SDS011;6503;48.572;13.460;2022-12-19T19:23:03;50.63;;;25.55;;
12869;SDS011;6503;48.572;13.460;2022-12-19T19:25:34;46.90;;;25.85;;
12869;SDS011;6503;48.572;13.460;2022-12-19T19:28:01;51.88;;;26.25;;
12869;SDS011;6503;48.572;13.460;2022-12-19T19:30:28;49.17;;;24.75;;
12869;SDS011;6503;48.572;13.460;2022-12-19T19:32:57;51.50;;;23.65;;
12869;SDS011;6503;48.572;13.460;2022-12-19T19:35:29;48.15;;;24.90;;
12869;SDS011;6503;48.572;13.460;2022-12-19T19:37:58;48.78;;;25.30;;
12869;SDS011;6503;48.572;13.460;2022-12-19T19:40:32;47.30;;;23.40;;
12869;SDS011;6503;48.572;13.460;2022-12-19T19:42:59;47.97;;;25.13;;
12869;SDS011;6503;48.572;13.460;2022-12-19T19:45:28;44.95;;;23.30;;
12869;SDS011;6503;48.572;13.460;2022-12-19T19:47:55;47.70;;;23.90;;
12869;SDS011;6503;48.572;13.460;2022-12-19T19:50:22;52.95;;;24.73;;
12869;SDS011;6503;48.572;13.460;2022-12-19T19:52:50;46.97;;;24.67;;
12869;SDS011;6503;48.572;13.460;2022-12-19T19:55:17;50.65;;;23.75;;
12869;SDS011;6503;48.572;13.460;2022-12-19T19:57:47;47.58;;;23.60;;
12869;SDS011;6503;48.572;13.460;2022-12-19T20:00:15;49.30;;;25.45;;
12869;SDS011;6503;48.572;13.460;2022-12-19T20:02:44;53.45;;;25.80;;
12869;SDS011;6503;48.572;13.460;2022-12-19T20:05:11;46.88;;;24.38;;
12869;SDS011;6503;48.572;13.460;2022-12-19T20:07:38;52.42;;;27.15;;
12869;SDS011;6503;48.572;13.460;2022-12-19T20:10:06;50.45;;;25.38;;
12869;SDS011;6503;48.572;13.460;2022-12-19T20:12:35;46.95;;;24.15;;
12869;SDS011;6503;48.572;13.460;2022-12-19T20:15:04;50.58;;;24.20;;
12869;SDS011;6503;48.572;13.460;2022-12-19T20:17:33;49.10;;;23.88;;
12869;SDS011;6503;48.572;13.460;2022-12-19T20:20:07;44.83;;;22.65;;
12869;SDS011;6503;48.572;13.460;2022-12-19T20:22:34;43.15;;;22.70;;
12869;SDS011;6503;48.572;13.460;2022-12-19T20:25:02;43.15;;;23.58;;
12869;SDS011;6503;48.572;13.460;2022-12-19T20:27:29;48.83;;;25.48;;
12869;SDS011;6503;48.572;13.460;2022-12-19T20:29:56;44.97;;;23.15;;